Ely Municipal Airport Ely US
ICAO: KELO
IATA: ELO
Category: Medium
Scheduled Services: No

Elevation: 1456 ft
TransAlt. 18000 ft.

Airport Communications:
AWOS 3:132.025
PRINCETON RDO:109.6
CTAF/UNICOM:122.8

KELO Zoom In..

Runways:

(A) RW 12 length 5596 ft width 100 ft
---- / hdg 120

(B) RW 30 length 5596 ft width 100 ft
---- / hdg 300

Location; KELO
Day. 05 / Time. 14.55 Zulu
* Altimeter: 29.84
* Temperature: 19° c. 66.2°f.
* Wind from: 240° Speed 08 kn.
Dewpoint: 09° c.
Visibility: 10 Statute Miles.
Clouds: Clear (automated report).

KELO 051455Z AUTO 24008KT 10SM CLR 19/09 A2984 RMK AO2


Wind From 240°
Speed 08 kn.

 
 
jpsmedia worldairports.se 2020   terms of use